Terminal Aerodrome Forecast
Issued by NWS

Current Version | Previous Version | Text Only | Print | Product List | Glossary On
Versions: 1 2 3 4 5 6 7 8 9 10 11 12 13 14 15 16
000
FTUS45 KREV 241100
TAFTVL
TAF
KTVL 241120Z 2412/2512 19006KT P6SM SCT100 BKN180
     FM241800 19015G27KT P6SM SCT080 BKN150
     FM250300 19012G20KT P6SM VCSH SCT030 BKN060 WS020/25040KT
     FM250700 19012G20KT 5SM -RASN OVC015 WS020/25035KT=

USA.gov is the U.S. government's official web portal to all federal, state and local government web resources and services.